sensor_id;sensor_type;location;lat;lon;timestamp;P1;durP1;ratioP1;P2;durP2;ratioP2
41661;SDS011;27351;45.992;12.666;2023-04-03T00:00:13;8.38;;;3.80;;
41661;SDS011;27351;45.992;12.666;2023-04-03T00:02:39;8.05;;;3.88;;
41661;SDS011;27351;45.992;12.666;2023-04-03T00:05:07;7.30;;;4.00;;
41661;SDS011;27351;45.992;12.666;2023-04-03T00:07:33;9.43;;;4.45;;
41661;SDS011;27351;45.992;12.666;2023-04-03T00:09:59;9.45;;;4.82;;
41661;SDS011;27351;45.992;12.666;2023-04-03T00:12:24;7.75;;;4.28;;
41661;SDS011;27351;45.992;12.666;2023-04-03T00:14:50;8.65;;;3.95;;
41661;SDS011;27351;45.992;12.666;2023-04-03T00:17:15;7.78;;;3.63;;
41661;SDS011;27351;45.992;12.666;2023-04-03T00:19:42;6.63;;;3.53;;
41661;SDS011;27351;45.992;12.666;2023-04-03T00:22:08;7.03;;;3.72;;
41661;SDS011;27351;45.992;12.666;2023-04-03T00:24:33;6.45;;;3.42;;
41661;SDS011;27351;45.992;12.666;2023-04-03T00:26:59;7.30;;;4.18;;
41661;SDS011;27351;45.992;12.666;2023-04-03T00:29:25;6.03;;;3.42;;
41661;SDS011;27351;45.992;12.666;2023-04-03T00:31:50;6.72;;;3.75;;
41661;SDS011;27351;45.992;12.666;2023-04-03T00:34:16;6.00;;;3.42;;
41661;SDS011;27351;45.992;12.666;2023-04-03T00:36:41;7.73;;;3.57;;
41661;SDS011;27351;45.992;12.666;2023-04-03T00:39:07;7.17;;;3.83;;
41661;SDS011;27351;45.992;12.666;2023-04-03T00:41:33;6.90;;;3.77;;
41661;SDS011;27351;45.992;12.666;2023-04-03T00:43:59;7.25;;;3.70;;
41661;SDS011;27351;45.992;12.666;2023-04-03T00:46:24;5.88;;;3.30;;
41661;SDS011;27351;45.992;12.666;2023-04-03T00:48:50;6.15;;;3.17;;
41661;SDS011;27351;45.992;12.666;2023-04-03T00:51:23;5.82;;;2.78;;
41661;SDS011;27351;45.992;12.666;2023-04-03T00:53:56;6.10;;;3.08;;
41661;SDS011;27351;45.992;12.666;2023-04-03T00:56:24;7.05;;;2.95;;
41661;SDS011;27351;45.992;12.666;2023-04-03T00:59:04;6.38;;;3.30;;
41661;SDS011;27351;45.992;12.666;2023-04-03T01:01:31;6.45;;;3.03;;
41661;SDS011;27351;45.992;12.666;2023-04-03T01:03:58;6.03;;;3.28;;
41661;SDS011;27351;45.992;12.666;2023-04-03T01:06:26;5.25;;;2.75;;
41661;SDS011;27351;45.992;12.666;2023-04-03T01:08:52;5.70;;;2.83;;
41661;SDS011;27351;45.992;12.666;2023-04-03T01:11:18;4.97;;;2.80;;
41661;SDS011;27351;45.992;12.666;2023-04-03T01:13:44;7.25;;;3.17;;
41661;SDS011;27351;45.992;12.666;2023-04-03T01:16:09;5.67;;;2.70;;
41661;SDS011;27351;45.992;12.666;2023-04-03T01:18:36;6.97;;;2.90;;
41661;SDS011;27351;45.992;12.666;2023-04-03T01:23:36;6.45;;;2.90;;
41661;SDS011;27351;45.992;12.666;2023-04-03T01:26:06;5.27;;;3.00;;
41661;SDS011;27351;45.992;12.666;2023-04-03T01:28:33;5.27;;;2.77;;
41661;SDS011;27351;45.992;12.666;2023-04-03T01:33:25;5.43;;;2.88;;
41661;SDS011;27351;45.992;12.666;2023-04-03T01:35:50;6.35;;;2.90;;
41661;SDS011;27351;45.992;12.666;2023-04-03T01:38:17;5.40;;;2.90;;
41661;SDS011;27351;45.992;12.666;2023-04-03T01:40:42;4.73;;;2.77;;
41661;SDS011;27351;45.992;12.666;2023-04-03T01:43:08;7.00;;;2.83;;
41661;SDS011;27351;45.992;12.666;2023-04-03T01:45:34;4.45;;;2.40;;
41661;SDS011;27351;45.992;12.666;2023-04-03T01:48:00;5.63;;;3.15;;
41661;SDS011;27351;45.992;12.666;2023-04-03T01:50:25;6.00;;;2.90;;
41661;SDS011;27351;45.992;12.666;2023-04-03T01:52:51;5.47;;;3.15;;
41661;SDS011;27351;45.992;12.666;2023-04-03T01:55:17;6.35;;;2.92;;
41661;SDS011;27351;45.992;12.666;2023-04-03T01:57:43;6.75;;;2.88;;
41661;SDS011;27351;45.992;12.666;2023-04-03T02:00:08;6.80;;;3.08;;
41661;SDS011;27351;45.992;12.666;2023-04-03T02:02:38;5.80;;;3.20;;
41661;SDS011;27351;45.992;12.666;2023-04-03T02:05:04;6.50;;;3.27;;
41661;SDS011;27351;45.992;12.666;2023-04-03T02:07:29;6.20;;;3.20;;
41661;SDS011;27351;45.992;12.666;2023-04-03T02:09:55;5.30;;;2.90;;
41661;SDS011;27351;45.992;12.666;2023-04-03T02:12:21;4.70;;;2.90;;
41661;SDS011;27351;45.992;12.666;2023-04-03T02:14:46;8.23;;;3.33;;
41661;SDS011;27351;45.992;12.666;2023-04-03T02:17:12;5.53;;;2.60;;
41661;SDS011;27351;45.992;12.666;2023-04-03T02:19:37;4.77;;;2.80;;
41661;SDS011;27351;45.992;12.666;2023-04-03T02:22:03;5.03;;;2.93;;
41661;SDS011;27351;45.992;12.666;2023-04-03T02:24:28;6.87;;;2.93;;
41661;SDS011;27351;45.992;12.666;2023-04-03T02:26:54;7.90;;;3.17;;
41661;SDS011;27351;45.992;12.666;2023-04-03T02:29:20;6.17;;;3.03;;
41661;SDS011;27351;45.992;12.666;2023-04-03T02:31:48;6.50;;;2.60;;
41661;SDS011;27351;45.992;12.666;2023-04-03T02:34:14;6.10;;;3.05;;
41661;SDS011;27351;45.992;12.666;2023-04-03T02:36:41;5.53;;;2.80;;
41661;SDS011;27351;45.992;12.666;2023-04-03T02:39:09;6.18;;;2.70;;
41661;SDS011;27351;45.992;12.666;2023-04-03T02:41:34;5.43;;;2.60;;
41661;SDS011;27351;45.992;12.666;2023-04-03T02:44:02;5.20;;;2.42;;
41661;SDS011;27351;45.992;12.666;2023-04-03T02:46:28;4.70;;;2.30;;
41661;SDS011;27351;45.992;12.666;2023-04-03T02:48:55;4.75;;;2.55;;
41661;SDS011;27351;45.992;12.666;2023-04-03T02:51:20;6.27;;;2.80;;
41661;SDS011;27351;45.992;12.666;2023-04-03T02:53:46;5.33;;;2.80;;
41661;SDS011;27351;45.992;12.666;2023-04-03T02:56:17;7.10;;;2.53;;
41661;SDS011;27351;45.992;12.666;2023-04-03T02:58:44;4.82;;;2.50;;
41661;SDS011;27351;45.992;12.666;2023-04-03T03:01:10;8.40;;;2.50;;
41661;SDS011;27351;45.992;12.666;2023-04-03T03:03:36;5.05;;;2.63;;
41661;SDS011;27351;45.992;12.666;2023-04-03T03:06:06;5.95;;;2.60;;
41661;SDS011;27351;45.992;12.666;2023-04-03T03:08:32;5.07;;;2.40;;
41661;SDS011;27351;45.992;12.666;2023-04-03T03:10:58;5.33;;;2.90;;
41661;SDS011;27351;45.992;12.666;2023-04-03T03:13:23;6.28;;;2.42;;
41661;SDS011;27351;45.992;12.666;2023-04-03T03:15:49;4.97;;;2.30;;
41661;SDS011;27351;45.992;12.666;2023-04-03T03:18:14;6.93;;;2.60;;
41661;SDS011;27351;45.992;12.666;2023-04-03T03:20:40;6.63;;;2.70;;
41661;SDS011;27351;45.992;12.666;2023-04-03T03:23:06;5.05;;;2.55;;
41661;SDS011;27351;45.992;12.666;2023-04-03T03:25:31;5.90;;;2.50;;
41661;SDS011;27351;45.992;12.666;2023-04-03T03:27:57;6.10;;;2.55;;
41661;SDS011;27351;45.992;12.666;2023-04-03T03:30:23;5.82;;;2.45;;
41661;SDS011;27351;45.992;12.666;2023-04-03T03:32:48;4.88;;;2.47;;
41661;SDS011;27351;45.992;12.666;2023-04-03T03:35:14;5.35;;;2.42;;
41661;SDS011;27351;45.992;12.666;2023-04-03T03:37:40;5.38;;;2.67;;
41661;SDS011;27351;45.992;12.666;2023-04-03T03:40:06;5.40;;;2.50;;
41661;SDS011;27351;45.992;12.666;2023-04-03T03:42:31;6.77;;;2.80;;
41661;SDS011;27351;45.992;12.666;2023-04-03T03:44:57;5.40;;;2.90;;
41661;SDS011;27351;45.992;12.666;2023-04-03T03:47:22;6.97;;;2.87;;
41661;SDS011;27351;45.992;12.666;2023-04-03T03:49:48;6.03;;;2.60;;
41661;SDS011;27351;45.992;12.666;2023-04-03T03:52:15;5.63;;;2.33;;
41661;SDS011;27351;45.992;12.666;2023-04-03T03:54:41;5.28;;;2.83;;
41661;SDS011;27351;45.992;12.666;2023-04-03T03:57:07;5.13;;;2.40;;
41661;SDS011;27351;45.992;12.666;2023-04-03T03:59:33;5.10;;;2.60;;
41661;SDS011;27351;45.992;12.666;2023-04-03T04:01:59;5.38;;;2.50;;
41661;SDS011;27351;45.992;12.666;2023-04-03T04:04:24;5.95;;;2.40;;
41661;SDS011;27351;45.992;12.666;2023-04-03T04:06:50;7.67;;;2.83;;
41661;SDS011;27351;45.992;12.666;2023-04-03T04:09:17;4.35;;;2.20;;
41661;SDS011;27351;45.992;12.666;2023-04-03T04:11:44;4.25;;;2.33;;
41661;SDS011;27351;45.992;12.666;2023-04-03T04:14:11;3.90;;;2.05;;
41661;SDS011;27351;45.992;12.666;2023-04-03T04:16:40;4.30;;;2.42;;
41661;SDS011;27351;45.992;12.666;2023-04-03T04:19:11;4.45;;;2.20;;
41661;SDS011;27351;45.992;12.666;2023-04-03T04:21:38;4.97;;;2.40;;
41661;SDS011;27351;45.992;12.666;2023-04-03T04:24:05;5.53;;;2.53;;
41661;SDS011;27351;45.992;12.666;2023-04-03T04:26:31;4.78;;;2.20;;
41661;SDS011;27351;45.992;12.666;2023-04-03T04:28:56;6.97;;;2.30;;
41661;SDS011;27351;45.992;12.666;2023-04-03T04:31:22;5.10;;;2.40;;
41661;SDS011;27351;45.992;12.666;2023-04-03T04:33:48;5.10;;;2.33;;
41661;SDS011;27351;45.992;12.666;2023-04-03T04:36:14;4.28;;;2.40;;
41661;SDS011;27351;45.992;12.666;2023-04-03T04:38:43;5.82;;;2.72;;
41661;SDS011;27351;45.992;12.666;2023-04-03T04:41:09;7.70;;;2.30;;
41661;SDS011;27351;45.992;12.666;2023-04-03T04:43:35;6.47;;;2.60;;
41661;SDS011;27351;45.992;12.666;2023-04-03T04:46:10;6.67;;;3.17;;
41661;SDS011;27351;45.992;12.666;2023-04-03T04:48:42;7.50;;;3.10;;
41661;SDS011;27351;45.992;12.666;2023-04-03T04:51:09;7.25;;;3.53;;
41661;SDS011;27351;45.992;12.666;2023-04-03T04:53:36;7.70;;;4.50;;
41661;SDS011;27351;45.992;12.666;2023-04-03T04:56:02;8.40;;;4.47;;
41661;SDS011;27351;45.992;12.666;2023-04-03T04:58:29;8.57;;;4.20;;
41661;SDS011;27351;45.992;12.666;2023-04-03T05:00:59;4.63;;;2.33;;
41661;SDS011;27351;45.992;12.666;2023-04-03T05:03:25;4.82;;;2.30;;
41661;SDS011;27351;45.992;12.666;2023-04-03T05:05:51;5.30;;;2.70;;
41661;SDS011;27351;45.992;12.666;2023-04-03T05:08:17;10.70;;;4.90;;
41661;SDS011;27351;45.992;12.666;2023-04-03T05:10:44;8.87;;;4.63;;
41661;SDS011;27351;45.992;12.666;2023-04-03T05:13:10;10.13;;;5.80;;
41661;SDS011;27351;45.992;12.666;2023-04-03T05:15:36;7.68;;;4.05;;
41661;SDS011;27351;45.992;12.666;2023-04-03T05:18:02;49.07;;;31.87;;
41661;SDS011;27351;45.992;12.666;2023-04-03T05:20:28;169.33;;;125.33;;
41661;SDS011;27351;45.992;12.666;2023-04-03T05:22:54;61.85;;;50.47;;
41661;SDS011;27351;45.992;12.666;2023-04-03T05:25:19;41.07;;;33.20;;
41661;SDS011;27351;45.992;12.666;2023-04-03T05:27:45;20.10;;;16.63;;
41661;SDS011;27351;45.992;12.666;2023-04-03T05:30:11;14.48;;;9.90;;
41661;SDS011;27351;45.992;12.666;2023-04-03T05:32:39;7.40;;;4.90;;
41661;SDS011;27351;45.992;12.666;2023-04-03T05:35:23;6.67;;;3.47;;
41661;SDS011;27351;45.992;12.666;2023-04-03T05:37:53;7.40;;;3.40;;
41661;SDS011;27351;45.992;12.666;2023-04-03T05:40:18;5.90;;;3.30;;
41661;SDS011;27351;45.992;12.666;2023-04-03T05:42:47;8.18;;;3.38;;
41661;SDS011;27351;45.992;12.666;2023-04-03T05:45:14;7.15;;;3.10;;
41661;SDS011;27351;45.992;12.666;2023-04-03T05:47:39;5.47;;;2.77;;
41661;SDS011;27351;45.992;12.666;2023-04-03T05:50:06;5.88;;;2.83;;
41661;SDS011;27351;45.992;12.666;2023-04-03T05:52:33;5.60;;;2.43;;
41661;SDS011;27351;45.992;12.666;2023-04-03T05:55:00;6.38;;;2.97;;
41661;SDS011;27351;45.992;12.666;2023-04-03T05:57:28;8.82;;;3.97;;
41661;SDS011;27351;45.992;12.666;2023-04-03T05:59:54;8.23;;;4.10;;
41661;SDS011;27351;45.992;12.666;2023-04-03T06:02:22;8.73;;;3.45;;
41661;SDS011;27351;45.992;12.666;2023-04-03T06:04:48;7.03;;;3.00;;
41661;SDS011;27351;45.992;12.666;2023-04-03T06:07:21;7.53;;;2.73;;
41661;SDS011;27351;45.992;12.666;2023-04-03T06:09:51;6.50;;;2.97;;
41661;SDS011;27351;45.992;12.666;2023-04-03T06:12:17;5.78;;;2.92;;
41661;SDS011;27351;45.992;12.666;2023-04-03T06:14:55;4.88;;;2.65;;
41661;SDS011;27351;45.992;12.666;2023-04-03T06:17:25;4.45;;;2.40;;
41661;SDS011;27351;45.992;12.666;2023-04-03T06:19:50;3.85;;;2.00;;
41661;SDS011;27351;45.992;12.666;2023-04-03T06:22:16;3.47;;;2.17;;
41661;SDS011;27351;45.992;12.666;2023-04-03T06:24:41;4.07;;;2.20;;
41661;SDS011;27351;45.992;12.666;2023-04-03T06:27:09;4.40;;;2.20;;
41661;SDS011;27351;45.992;12.666;2023-04-03T06:29:35;4.57;;;2.47;;
41661;SDS011;27351;45.992;12.666;2023-04-03T06:32:00;4.80;;;2.17;;
41661;SDS011;27351;45.992;12.666;2023-04-03T06:34:26;4.83;;;2.20;;
41661;SDS011;27351;45.992;12.666;2023-04-03T06:36:51;4.37;;;2.30;;
41661;SDS011;27351;45.992;12.666;2023-04-03T06:39:19;3.55;;;2.13;;
41661;SDS011;27351;45.992;12.666;2023-04-03T06:41:50;3.25;;;1.92;;
41661;SDS011;27351;45.992;12.666;2023-04-03T06:44:17;3.80;;;1.80;;
41661;SDS011;27351;45.992;12.666;2023-04-03T06:46:43;2.45;;;1.50;;
41661;SDS011;27351;45.992;12.666;2023-04-03T06:49:09;2.83;;;1.80;;
41661;SDS011;27351;45.992;12.666;2023-04-03T06:51:35;2.30;;;1.40;;
41661;SDS011;27351;45.992;12.666;2023-04-03T06:54:00;4.32;;;1.77;;
41661;SDS011;27351;45.992;12.666;2023-04-03T06:56:26;4.15;;;1.90;;
41661;SDS011;27351;45.992;12.666;2023-04-03T06:58:53;4.10;;;1.73;;
41661;SDS011;27351;45.992;12.666;2023-04-03T07:01:20;4.25;;;2.00;;
41661;SDS011;27351;45.992;12.666;2023-04-03T07:03:46;2.97;;;1.75;;
41661;SDS011;27351;45.992;12.666;2023-04-03T07:06:12;3.63;;;1.73;;
41661;SDS011;27351;45.992;12.666;2023-04-03T07:08:38;4.15;;;2.05;;
41661;SDS011;27351;45.992;12.666;2023-04-03T07:11:04;3.53;;;1.92;;
41661;SDS011;27351;45.992;12.666;2023-04-03T07:13:30;5.15;;;2.03;;
41661;SDS011;27351;45.992;12.666;2023-04-03T07:15:55;4.03;;;2.20;;
41661;SDS011;27351;45.992;12.666;2023-04-03T07:18:21;3.35;;;2.00;;
41661;SDS011;27351;45.992;12.666;2023-04-03T07:20:47;3.53;;;2.03;;
41661;SDS011;27351;45.992;12.666;2023-04-03T07:23:13;5.03;;;2.37;;
41661;SDS011;27351;45.992;12.666;2023-04-03T07:25:42;4.00;;;2.00;;
41661;SDS011;27351;45.992;12.666;2023-04-03T07:28:08;4.28;;;2.30;;
41661;SDS011;27351;45.992;12.666;2023-04-03T07:30:34;7.47;;;3.87;;
41661;SDS011;27351;45.992;12.666;2023-04-03T07:33:00;9.23;;;4.30;;
41661;SDS011;27351;45.992;12.666;2023-04-03T07:35:25;6.63;;;2.60;;
41661;SDS011;27351;45.992;12.666;2023-04-03T07:37:51;3.50;;;1.98;;
41661;SDS011;27351;45.992;12.666;2023-04-03T07:40:17;2.83;;;1.77;;
41661;SDS011;27351;45.992;12.666;2023-04-03T07:42:42;3.33;;;1.52;;
41661;SDS011;27351;45.992;12.666;2023-04-03T07:45:08;4.70;;;1.60;;
41661;SDS011;27351;45.992;12.666;2023-04-03T07:47:34;4.00;;;1.67;;
41661;SDS011;27351;45.992;12.666;2023-04-03T07:50:00;4.32;;;1.75;;
41661;SDS011;27351;45.992;12.666;2023-04-03T07:52:25;2.55;;;1.60;;
41661;SDS011;27351;45.992;12.666;2023-04-03T07:54:51;3.10;;;1.50;;
41661;SDS011;27351;45.992;12.666;2023-04-03T07:57:16;3.30;;;1.60;;
41661;SDS011;27351;45.992;12.666;2023-04-03T07:59:42;3.80;;;1.90;;
41661;SDS011;27351;45.992;12.666;2023-04-03T08:02:11;2.95;;;1.63;;
41661;SDS011;27351;45.992;12.666;2023-04-03T08:04:37;2.33;;;1.48;;
41661;SDS011;27351;45.992;12.666;2023-04-03T08:07:03;2.47;;;1.50;;
41661;SDS011;27351;45.992;12.666;2023-04-03T08:09:28;2.40;;;1.60;;
41661;SDS011;27351;45.992;12.666;2023-04-03T08:11:53;2.50;;;1.30;;
41661;SDS011;27351;45.992;12.666;2023-04-03T08:14:19;2.42;;;1.35;;
41661;SDS011;27351;45.992;12.666;2023-04-03T08:16:46;2.10;;;1.30;;
41661;SDS011;27351;45.992;12.666;2023-04-03T08:19:11;3.05;;;1.30;;
41661;SDS011;27351;45.992;12.666;2023-04-03T08:21:41;3.33;;;1.60;;
41661;SDS011;27351;45.992;12.666;2023-04-03T08:24:06;3.08;;;1.42;;
41661;SDS011;27351;45.992;12.666;2023-04-03T08:26:32;2.63;;;1.35;;
41661;SDS011;27351;45.992;12.666;2023-04-03T08:28:57;2.00;;;1.40;;
41661;SDS011;27351;45.992;12.666;2023-04-03T08:31:23;2.27;;;1.40;;
41661;SDS011;27351;45.992;12.666;2023-04-03T08:33:49;2.13;;;1.25;;
41661;SDS011;27351;45.992;12.666;2023-04-03T08:36:22;2.40;;;1.53;;
41661;SDS011;27351;45.992;12.666;2023-04-03T08:38:49;3.08;;;1.40;;
41661;SDS011;27351;45.992;12.666;2023-04-03T08:46:10;3.20;;;1.58;;
41661;SDS011;27351;45.992;12.666;2023-04-03T08:48:39;4.47;;;1.58;;
41661;SDS011;27351;45.992;12.666;2023-04-03T08:51:24;4.82;;;1.50;;
41661;SDS011;27351;45.992;12.666;2023-04-03T08:53:57;2.92;;;1.40;;
41661;SDS011;27351;45.992;12.666;2023-04-03T08:56:24;3.45;;;1.70;;
41661;SDS011;27351;45.992;12.666;2023-04-03T08:59:00;2.77;;;1.50;;
41661;SDS011;27351;45.992;12.666;2023-04-03T09:01:28;2.67;;;1.67;;
41661;SDS011;27351;45.992;12.666;2023-04-03T09:03:55;3.22;;;1.70;;
41661;SDS011;27351;45.992;12.666;2023-04-03T09:06:21;3.43;;;1.53;;
41661;SDS011;27351;45.992;12.666;2023-04-03T09:11:26;3.35;;;1.73;;
41661;SDS011;27351;45.992;12.666;2023-04-03T09:14:05;3.03;;;1.40;;
41661;SDS011;27351;45.992;12.666;2023-04-03T09:19:22;2.97;;;1.70;;
41661;SDS011;27351;45.992;12.666;2023-04-03T09:21:45;2.60;;;1.63;;
41661;SDS011;27351;45.992;12.666;2023-04-03T09:24:12;5.17;;;1.80;;
41661;SDS011;27351;45.992;12.666;2023-04-03T09:26:42;2.97;;;1.60;;
41661;SDS011;27351;45.992;12.666;2023-04-03T09:29:10;3.85;;;1.70;;
41661;SDS011;27351;45.992;12.666;2023-04-03T09:31:40;4.20;;;2.00;;
41661;SDS011;27351;45.992;12.666;2023-04-03T09:34:15;2.25;;;1.40;;
41661;SDS011;27351;45.992;12.666;2023-04-03T09:36:52;3.42;;;1.60;;
41661;SDS011;27351;45.992;12.666;2023-04-03T09:39:19;2.92;;;1.70;;
41661;SDS011;27351;45.992;12.666;2023-04-03T09:44:28;2.42;;;1.60;;
41661;SDS011;27351;45.992;12.666;2023-04-03T09:46:54;3.53;;;1.80;;
41661;SDS011;27351;45.992;12.666;2023-04-03T09:49:19;2.38;;;1.52;;
41661;SDS011;27351;45.992;12.666;2023-04-03T09:51:45;4.35;;;1.73;;
41661;SDS011;27351;45.992;12.666;2023-04-03T09:54:33;3.83;;;1.80;;
41661;SDS011;27351;45.992;12.666;2023-04-03T09:56:57;4.13;;;1.95;;
41661;SDS011;27351;45.992;12.666;2023-04-03T09:59:26;3.63;;;1.67;;
41661;SDS011;27351;45.992;12.666;2023-04-03T10:04:40;3.47;;;1.88;;
41661;SDS011;27351;45.992;12.666;2023-04-03T10:07:25;3.30;;;1.80;;
41661;SDS011;27351;45.992;12.666;2023-04-03T10:09:55;3.13;;;1.77;;
41661;SDS011;27351;45.992;12.666;2023-04-03T10:12:21;4.13;;;1.70;;
41661;SDS011;27351;45.992;12.666;2023-04-03T10:20:02;3.60;;;1.40;;
41661;SDS011;27351;45.992;12.666;2023-04-03T10:45:55;2.55;;;1.58;;
41661;SDS011;27351;45.992;12.666;2023-04-03T10:56:15;2.80;;;1.50;;
41661;SDS011;27351;45.992;12.666;2023-04-03T10:58:34;2.95;;;1.42;;
41661;SDS011;27351;45.992;12.666;2023-04-03T11:01:19;2.45;;;1.50;;
41661;SDS011;27351;45.992;12.666;2023-04-03T11:03:47;2.55;;;1.50;;
41661;SDS011;27351;45.992;12.666;2023-04-03T11:06:14;3.10;;;1.50;;
41661;SDS011;27351;45.992;12.666;2023-04-03T11:08:44;2.78;;;1.38;;
41661;SDS011;27351;45.992;12.666;2023-04-03T11:11:13;2.33;;;1.20;;
41661;SDS011;27351;45.992;12.666;2023-04-03T11:13:52;2.88;;;1.27;;
41661;SDS011;27351;45.992;12.666;2023-04-03T11:16:27;2.35;;;1.48;;
41661;SDS011;27351;45.992;12.666;2023-04-03T11:18:59;2.40;;;1.35;;
41661;SDS011;27351;45.992;12.666;2023-04-03T11:21:43;3.75;;;1.67;;
41661;SDS011;27351;45.992;12.666;2023-04-03T11:24:16;3.05;;;1.70;;
41661;SDS011;27351;45.992;12.666;2023-04-03T11:26:42;1.98;;;1.20;;
41661;SDS011;27351;45.992;12.666;2023-04-03T11:29:09;2.65;;;1.50;;
41661;SDS011;27351;45.992;12.666;2023-04-03T11:36:39;2.50;;;1.30;;
41661;SDS011;27351;45.992;12.666;2023-04-03T11:39:25;1.73;;;1.20;;
41661;SDS011;27351;45.992;12.666;2023-04-03T11:41:52;3.38;;;1.20;;
41661;SDS011;27351;45.992;12.666;2023-04-03T11:44:27;3.67;;;1.60;;
41661;SDS011;27351;45.992;12.666;2023-04-03T11:46:55;2.35;;;1.38;;
41661;SDS011;27351;45.992;12.666;2023-04-03T11:52:09;2.33;;;1.30;;
41661;SDS011;27351;45.992;12.666;2023-04-03T11:54:45;2.75;;;1.40;;
41661;SDS011;27351;45.992;12.666;2023-04-03T11:59:55;2.17;;;1.10;;
41661;SDS011;27351;45.992;12.666;2023-04-03T12:02:35;2.27;;;1.20;;
41661;SDS011;27351;45.992;12.666;2023-04-03T12:08:06;1.38;;;1.00;;
41661;SDS011;27351;45.992;12.666;2023-04-03T12:10:31;1.63;;;1.00;;
41661;SDS011;27351;45.992;12.666;2023-04-03T12:12:56;1.77;;;0.97;;
41661;SDS011;27351;45.992;12.666;2023-04-03T12:15:25;1.77;;;0.85;;
41661;SDS011;27351;45.992;12.666;2023-04-03T12:17:51;3.53;;;1.10;;
41661;SDS011;27351;45.992;12.666;2023-04-03T12:20:45;1.60;;;1.00;;
41661;SDS011;27351;45.992;12.666;2023-04-03T12:25:50;1.77;;;1.10;;
41661;SDS011;27351;45.992;12.666;2023-04-03T12:28:16;2.72;;;1.10;;
41661;SDS011;27351;45.992;12.666;2023-04-03T12:30:42;2.38;;;1.10;;
41661;SDS011;27351;45.992;12.666;2023-04-03T12:33:26;2.17;;;0.90;;
41661;SDS011;27351;45.992;12.666;2023-04-03T12:46:07;1.55;;;0.80;;
41661;SDS011;27351;45.992;12.666;2023-04-03T12:48:57;3.75;;;0.80;;
41661;SDS011;27351;45.992;12.666;2023-04-03T12:51:37;1.63;;;0.82;;
41661;SDS011;27351;45.992;12.666;2023-04-03T12:54:04;1.60;;;0.80;;
41661;SDS011;27351;45.992;12.666;2023-04-03T12:56:38;1.45;;;0.57;;
41661;SDS011;27351;45.992;12.666;2023-04-03T12:59:18;1.80;;;0.87;;
41661;SDS011;27351;45.992;12.666;2023-04-03T13:01:52;2.20;;;0.80;;
41661;SDS011;27351;45.992;12.666;2023-04-03T13:04:18;1.60;;;0.73;;
41661;SDS011;27351;45.992;12.666;2023-04-03T13:06:44;1.50;;;0.80;;
41661;SDS011;27351;45.992;12.666;2023-04-03T13:09:20;2.28;;;0.93;;
41661;SDS011;27351;45.992;12.666;2023-04-03T13:11:51;1.35;;;0.80;;
41661;SDS011;27351;45.992;12.666;2023-04-03T13:14:23;1.10;;;0.80;;
41661;SDS011;27351;45.992;12.666;2023-04-03T13:16:59;1.40;;;0.70;;
41661;SDS011;27351;45.992;12.666;2023-04-03T13:19:26;1.50;;;0.82;;
41661;SDS011;27351;45.992;12.666;2023-04-03T13:21:55;1.80;;;0.80;;
41661;SDS011;27351;45.992;12.666;2023-04-03T13:24:22;1.63;;;0.90;;
41661;SDS011;27351;45.992;12.666;2023-04-03T13:26:47;1.52;;;0.80;;
41661;SDS011;27351;45.992;12.666;2023-04-03T13:29:27;1.77;;;0.73;;
41661;SDS011;27351;45.992;12.666;2023-04-03T13:31:54;1.30;;;0.70;;
41661;SDS011;27351;45.992;12.666;2023-04-03T13:34:19;1.63;;;0.70;;
41661;SDS011;27351;45.992;12.666;2023-04-03T13:36:54;0.95;;;0.68;;
41661;SDS011;27351;45.992;12.666;2023-04-03T13:41:50;1.60;;;0.82;;
41661;SDS011;27351;45.992;12.666;2023-04-03T13:46:57;3.33;;;0.93;;
41661;SDS011;27351;45.992;12.666;2023-04-03T13:49:32;2.72;;;0.80;;
41661;SDS011;27351;45.992;12.666;2023-04-03T13:51:58;0.75;;;0.60;;
41661;SDS011;27351;45.992;12.666;2023-04-03T13:54:28;2.65;;;1.00;;
41661;SDS011;27351;45.992;12.666;2023-04-03T13:56:55;1.63;;;0.80;;
41661;SDS011;27351;45.992;12.666;2023-04-03T14:04:29;1.20;;;0.60;;
41661;SDS011;27351;45.992;12.666;2023-04-03T14:06:55;1.55;;;0.60;;
41661;SDS011;27351;45.992;12.666;2023-04-03T14:09:21;1.33;;;0.60;;
41661;SDS011;27351;45.992;12.666;2023-04-03T14:11:48;1.48;;;0.70;;
41661;SDS011;27351;45.992;12.666;2023-04-03T14:14:20;1.30;;;0.70;;
41661;SDS011;27351;45.992;12.666;2023-04-03T14:16:48;1.47;;;0.73;;
41661;SDS011;27351;45.992;12.666;2023-04-03T14:19:22;1.90;;;0.73;;
41661;SDS011;27351;45.992;12.666;2023-04-03T14:21:48;1.27;;;0.60;;
41661;SDS011;27351;45.992;12.666;2023-04-03T14:24:13;3.50;;;0.70;;
41661;SDS011;27351;45.992;12.666;2023-04-03T14:26:39;1.65;;;0.77;;
41661;SDS011;27351;45.992;12.666;2023-04-03T14:29:06;1.60;;;0.60;;
41661;SDS011;27351;45.992;12.666;2023-04-03T14:31:31;0.97;;;0.53;;
41661;SDS011;27351;45.992;12.666;2023-04-03T14:33:57;1.20;;;0.80;;
41661;SDS011;27351;45.992;12.666;2023-04-03T14:36:23;2.10;;;0.80;;
41661;SDS011;27351;45.992;12.666;2023-04-03T14:38:50;2.17;;;0.73;;
41661;SDS011;27351;45.992;12.666;2023-04-03T14:41:17;1.17;;;0.70;;
41661;SDS011;27351;45.992;12.666;2023-04-03T14:43:43;2.20;;;0.70;;
41661;SDS011;27351;45.992;12.666;2023-04-03T14:46:11;2.15;;;0.77;;
41661;SDS011;27351;45.992;12.666;2023-04-03T14:48:37;2.08;;;0.80;;
41661;SDS011;27351;45.992;12.666;2023-04-03T14:51:03;4.33;;;0.80;;
41661;SDS011;27351;45.992;12.666;2023-04-03T14:53:28;2.63;;;0.80;;
41661;SDS011;27351;45.992;12.666;2023-04-03T14:55:55;2.70;;;0.85;;
41661;SDS011;27351;45.992;12.666;2023-04-03T14:58:20;1.98;;;0.77;;
41661;SDS011;27351;45.992;12.666;2023-04-03T15:00:46;2.00;;;0.60;;
41661;SDS011;27351;45.992;12.666;2023-04-03T15:03:13;3.60;;;0.90;;
41661;SDS011;27351;45.992;12.666;2023-04-03T15:05:39;2.70;;;0.70;;
41661;SDS011;27351;45.992;12.666;2023-04-03T15:08:05;4.13;;;0.90;;
41661;SDS011;27351;45.992;12.666;2023-04-03T15:10:33;2.17;;;0.80;;
41661;SDS011;27351;45.992;12.666;2023-04-03T15:12:59;3.22;;;0.60;;
41661;SDS011;27351;45.992;12.666;2023-04-03T15:15:26;2.53;;;0.90;;
41661;SDS011;27351;45.992;12.666;2023-04-03T15:17:54;3.40;;;0.82;;
41661;SDS011;27351;45.992;12.666;2023-04-03T15:20:21;2.67;;;0.80;;
41661;SDS011;27351;45.992;12.666;2023-04-03T15:22:47;1.50;;;0.70;;
41661;SDS011;27351;45.992;12.666;2023-04-03T15:25:12;1.33;;;0.70;;
41661;SDS011;27351;45.992;12.666;2023-04-03T15:27:38;3.17;;;0.90;;
41661;SDS011;27351;45.992;12.666;2023-04-03T15:30:07;1.65;;;0.70;;
41661;SDS011;27351;45.992;12.666;2023-04-03T15:32:33;2.53;;;0.65;;
41661;SDS011;27351;45.992;12.666;2023-04-03T15:35:00;3.40;;;0.90;;
41661;SDS011;27351;45.992;12.666;2023-04-03T15:37:26;2.28;;;0.70;;
41661;SDS011;27351;45.992;12.666;2023-04-03T15:39:52;3.45;;;1.10;;
41661;SDS011;27351;45.992;12.666;2023-04-03T15:42:17;1.60;;;0.63;;
41661;SDS011;27351;45.992;12.666;2023-04-03T15:44:43;2.03;;;0.60;;
41661;SDS011;27351;45.992;12.666;2023-04-03T15:47:08;1.50;;;0.60;;
41661;SDS011;27351;45.992;12.666;2023-04-03T15:49:34;1.77;;;0.80;;
41661;SDS011;27351;45.992;12.666;2023-04-03T15:52:00;3.78;;;0.73;;
41661;SDS011;27351;45.992;12.666;2023-04-03T15:54:26;3.45;;;1.10;;
41661;SDS011;27351;45.992;12.666;2023-04-03T15:56:52;2.07;;;0.70;;
41661;SDS011;27351;45.992;12.666;2023-04-03T15:59:18;3.75;;;0.80;;
41661;SDS011;27351;45.992;12.666;2023-04-03T16:01:43;1.50;;;0.63;;
41661;SDS011;27351;45.992;12.666;2023-04-03T16:04:09;2.00;;;0.80;;
41661;SDS011;27351;45.992;12.666;2023-04-03T16:06:35;3.35;;;0.65;;
41661;SDS011;27351;45.992;12.666;2023-04-03T16:09:01;6.43;;;0.93;;